Sakaide Maru — 3EYR6 — position and weather

sailwx.info

Track history (hours):
 
Tides and Currents Weather Stations Pressure Air Temp Water Temp Dewpoint Dewpoint Depression Visibility Wind Speed Wind Dir Waves Ship Positions

Sakaide Maru

Last reported at 2016-Jul-26 17:19 UTC. Time now 2016-Jul-27 11:32 UTC.
Position N 34°55' E 140°45'.

Length 255 m; draft 7.4 m.

Type: Ship. MMSI: 354898000.

Date/timePositionNaut miles runAvg speedWind from/ knotsBaromVisibWave heightAir tempDewpointWater temp
2016-Jul-26 17:19N 34°55' E 140°45'912.5
2016-Jul-26 16:33N 34°49' E 140°37'1312.6
2016-Jul-26 15:31N 34°40' E 140°25'1412.7
2016-Jul-26 14:23N 34°30' E 140°13'1112.5
2016-Jul-26 13:29N 34°23' E 140°03'2412.4
2016-Jul-26 11:30N 34°14' E 139°35'23111.5
2016-Jul-25 15:23N 33°60' E 134°57'1012.5
2016-Jul-25 14:33N 34°10' E 134°57'10 9.7
2016-Jul-25 13:32N 34°20' E 134°59'1212.2
2016-Jul-25 12:33N 34°31' E 135°04'7 7.0
2016-Jul-25 11:33N 34°37' E 135°00'1414.3
2016-Jul-25 10:33N 34°32' E 134°44'  
2016-Jul-20 20:28N 34°33' E 134°47'1111.4
2016-Jul-20 19:33N 34°37' E 134°58'7 7.3
2016-Jul-20 18:33N 34°35' E 135°06'8 7.8
2016-Jul-20 17:33N 34°27' E 135°04'1110.6
2016-Jul-20 16:33N 34°17' E 134°59'9 9.4
2016-Jul-20 15:33N 34°08' E 134°59'6 5.6
2016-Jul-20 14:33N 34°02' E 134°59'6 6.2
2016-Jul-20 13:33N 33°56' E 134°58'  
Track history (hours):
 
Tides and Currents Weather Stations Pressure Air Temp Water Temp Dewpoint Dewpoint Depression Visibility Wind Speed Wind Dir Waves Ship Positions

Sakaide Maru

Last reported at 2016-Jul-26 17:19 UTC. Time now 2016-Jul-27 11:32 UTC.
Position N 34°55' E 140°45'.

Length 255 m; draft 7.4 m.

Type: Ship. MMSI: 354898000.

Date/timePositionNaut miles runAvg speedWind from/ knotsBaromVisibWave heightAir tempDewpointWater temp
2016-Jul-26 17:19N 34°55' E 140°45'912.5
2016-Jul-26 16:33N 34°49' E 140°37'1312.6
2016-Jul-26 15:31N 34°40' E 140°25'1412.7
2016-Jul-26 14:23N 34°30' E 140°13'1112.5
2016-Jul-26 13:29N 34°23' E 140°03'2412.4
2016-Jul-26 11:30N 34°14' E 139°35'23111.5
2016-Jul-25 15:23N 33°60' E 134°57'1012.5
2016-Jul-25 14:33N 34°10' E 134°57'10 9.7
2016-Jul-25 13:32N 34°20' E 134°59'1212.2
2016-Jul-25 12:33N 34°31' E 135°04'7 7.0
2016-Jul-25 11:33N 34°37' E 135°00'1414.3
2016-Jul-25 10:33N 34°32' E 134°44'  
2016-Jul-20 20:28N 34°33' E 134°47'1111.4
2016-Jul-20 19:33N 34°37' E 134°58'7 7.3
2016-Jul-20 18:33N 34°35' E 135°06'8 7.8
2016-Jul-20 17:33N 34°27' E 135°04'1110.6
2016-Jul-20 16:33N 34°17' E 134°59'9 9.4
2016-Jul-20 15:33N 34°08' E 134°59'6 5.6
2016-Jul-20 14:33N 34°02' E 134°59'6 6.2
2016-Jul-20 13:33N 33°56' E 134°58'  

Dump ship's entire track history